Terminal Aerodrome Forecast
Issued by NWS Cleveland, OH

Home | Current Version | Previous Version | Graphics & Text | Print | Product List | Glossary On
Versions: 1 2 3 4 5 6 7 8 9 10 11 12 13 14 15
970
FTUS41 KCLE 061604 AAA
TAFMFD
TAF AMD
KMFD 061604Z 0616/0712 09010KT 3SM -RA BR OVC020
      TEMPO 0616/0620 2SM -RA BR OVC008
     FM070000 25010KT P6SM OVC015
     FM070800 24008KT P6SM OVC025=

USA.gov is the U.S. government's official web portal to all federal, state and local government web resources and services.